sensor_id;sensor_type;location;lat;lon;timestamp;P1;durP1;ratioP1;P2;durP2;ratioP2
55461;SDS011;41327;45.102;20.624;2022-12-18T00:01:33;37.38;;;16.08;;
55461;SDS011;41327;45.102;20.624;2022-12-18T00:04:01;32.92;;;14.68;;
55461;SDS011;41327;45.102;20.624;2022-12-18T00:06:28;28.30;;;12.77;;
55461;SDS011;41327;45.102;20.624;2022-12-18T00:08:54;32.35;;;14.25;;
55461;SDS011;41327;45.102;20.624;2022-12-18T00:11:21;32.38;;;12.88;;
55461;SDS011;41327;45.102;20.624;2022-12-18T00:13:48;24.83;;;12.00;;
55461;SDS011;41327;45.102;20.624;2022-12-18T00:16:15;28.63;;;13.05;;
55461;SDS011;41327;45.102;20.624;2022-12-18T00:18:41;26.00;;;11.50;;
55461;SDS011;41327;45.102;20.624;2022-12-18T00:21:09;28.70;;;12.57;;
55461;SDS011;41327;45.102;20.624;2022-12-18T00:23:37;30.75;;;12.52;;
55461;SDS011;41327;45.102;20.624;2022-12-18T00:26:05;27.73;;;12.35;;
55461;SDS011;41327;45.102;20.624;2022-12-18T00:28:32;29.85;;;12.95;;
55461;SDS011;41327;45.102;20.624;2022-12-18T00:33:27;30.20;;;12.60;;
55461;SDS011;41327;45.102;20.624;2022-12-18T00:35:53;35.80;;;15.85;;
55461;SDS011;41327;45.102;20.624;2022-12-18T00:38:20;32.30;;;13.35;;
55461;SDS011;41327;45.102;20.624;2022-12-18T00:40:46;40.25;;;15.40;;
55461;SDS011;41327;45.102;20.624;2022-12-18T00:43:12;33.28;;;12.65;;
55461;SDS011;41327;45.102;20.624;2022-12-18T00:45:38;34.08;;;14.95;;
55461;SDS011;41327;45.102;20.624;2022-12-18T00:48:07;32.90;;;13.98;;
55461;SDS011;41327;45.102;20.624;2022-12-18T00:50:34;40.17;;;15.10;;
55461;SDS011;41327;45.102;20.624;2022-12-18T00:52:59;39.70;;;15.98;;
55461;SDS011;41327;45.102;20.624;2022-12-18T00:55:25;34.92;;;15.73;;
55461;SDS011;41327;45.102;20.624;2022-12-18T00:57:53;35.65;;;14.55;;
55461;SDS011;41327;45.102;20.624;2022-12-18T01:00:19;29.90;;;13.50;;
55461;SDS011;41327;45.102;20.624;2022-12-18T01:02:45;31.02;;;13.05;;
55461;SDS011;41327;45.102;20.624;2022-12-18T01:05:12;29.20;;;13.52;;
55461;SDS011;41327;45.102;20.624;2022-12-18T01:07:42;31.80;;;12.60;;
55461;SDS011;41327;45.102;20.624;2022-12-18T01:10:09;27.35;;;12.40;;
55461;SDS011;41327;45.102;20.624;2022-12-18T01:12:38;27.95;;;12.20;;
55461;SDS011;41327;45.102;20.624;2022-12-18T01:15:04;33.58;;;12.93;;
55461;SDS011;41327;45.102;20.624;2022-12-18T01:17:35;34.60;;;14.65;;
55461;SDS011;41327;45.102;20.624;2022-12-18T01:20:02;28.90;;;13.32;;
55461;SDS011;41327;45.102;20.624;2022-12-18T01:22:31;37.30;;;14.68;;
55461;SDS011;41327;45.102;20.624;2022-12-18T01:24:58;30.13;;;13.38;;
55461;SDS011;41327;45.102;20.624;2022-12-18T01:27:26;34.10;;;14.63;;
55461;SDS011;41327;45.102;20.624;2022-12-18T01:29:52;35.67;;;14.18;;
55461;SDS011;41327;45.102;20.624;2022-12-18T01:32:17;33.20;;;14.35;;
55461;SDS011;41327;45.102;20.624;2022-12-18T01:34:43;26.40;;;12.18;;
55461;SDS011;41327;45.102;20.624;2022-12-18T01:37:08;35.50;;;14.93;;
55461;SDS011;41327;45.102;20.624;2022-12-18T01:39:34;33.67;;;14.20;;
55461;SDS011;41327;45.102;20.624;2022-12-18T01:42:00;31.55;;;14.02;;
55461;SDS011;41327;45.102;20.624;2022-12-18T01:47:53;30.40;;;11.95;;
55461;SDS011;41327;45.102;20.624;2022-12-18T01:50:39;28.17;;;11.90;;
55461;SDS011;41327;45.102;20.624;2022-12-18T01:53:06;28.58;;;12.13;;
55461;SDS011;41327;45.102;20.624;2022-12-18T01:55:38;26.27;;;12.00;;
55461;SDS011;41327;45.102;20.624;2022-12-18T01:58:10;32.10;;;12.25;;
55461;SDS011;41327;45.102;20.624;2022-12-18T02:00:36;29.65;;;14.02;;
55461;SDS011;41327;45.102;20.624;2022-12-18T02:03:01;27.20;;;12.85;;
55461;SDS011;41327;45.102;20.624;2022-12-18T02:08:20;28.27;;;11.18;;
55461;SDS011;41327;45.102;20.624;2022-12-18T02:13:36;27.67;;;13.10;;
55461;SDS011;41327;45.102;20.624;2022-12-18T02:16:17;31.88;;;13.85;;
55461;SDS011;41327;45.102;20.624;2022-12-18T02:19:07;29.20;;;13.38;;
55461;SDS011;41327;45.102;20.624;2022-12-18T02:21:47;31.27;;;12.10;;
55461;SDS011;41327;45.102;20.624;2022-12-18T02:27:04;28.73;;;12.85;;
55461;SDS011;41327;45.102;20.624;2022-12-18T02:29:35;36.55;;;12.90;;
55461;SDS011;41327;45.102;20.624;2022-12-18T02:32:04;32.75;;;13.23;;
55461;SDS011;41327;45.102;20.624;2022-12-18T02:34:33;33.95;;;12.63;;
55461;SDS011;41327;45.102;20.624;2022-12-18T02:37:02;34.00;;;13.13;;
55461;SDS011;41327;45.102;20.624;2022-12-18T02:39:30;30.77;;;13.75;;
55461;SDS011;41327;45.102;20.624;2022-12-18T02:41:58;31.98;;;12.65;;
55461;SDS011;41327;45.102;20.624;2022-12-18T02:44:24;28.58;;;11.73;;
55461;SDS011;41327;45.102;20.624;2022-12-18T02:46:50;31.85;;;13.13;;
55461;SDS011;41327;45.102;20.624;2022-12-18T02:51:50;30.95;;;13.15;;
55461;SDS011;41327;45.102;20.624;2022-12-18T02:57:06;30.50;;;11.95;;
55461;SDS011;41327;45.102;20.624;2022-12-18T03:00:08;33.88;;;12.35;;
55461;SDS011;41327;45.102;20.624;2022-12-18T03:05:17;28.80;;;13.52;;
55461;SDS011;41327;45.102;20.624;2022-12-18T03:10:16;39.38;;;14.48;;
55461;SDS011;41327;45.102;20.624;2022-12-18T03:12:47;26.48;;;12.07;;
55461;SDS011;41327;45.102;20.624;2022-12-18T03:17:46;34.22;;;12.43;;
55461;SDS011;41327;45.102;20.624;2022-12-18T03:20:17;27.58;;;12.00;;
55461;SDS011;41327;45.102;20.624;2022-12-18T03:22:46;30.55;;;12.65;;
55461;SDS011;41327;45.102;20.624;2022-12-18T03:25:14;33.22;;;12.57;;
55461;SDS011;41327;45.102;20.624;2022-12-18T03:27:46;23.33;;;11.32;;
55461;SDS011;41327;45.102;20.624;2022-12-18T03:30:15;34.67;;;13.25;;
55461;SDS011;41327;45.102;20.624;2022-12-18T03:32:48;30.80;;;13.50;;
55461;SDS011;41327;45.102;20.624;2022-12-18T03:35:21;33.92;;;13.95;;
55461;SDS011;41327;45.102;20.624;2022-12-18T03:37:55;29.67;;;13.00;;
55461;SDS011;41327;45.102;20.624;2022-12-18T03:40:21;31.08;;;12.85;;
55461;SDS011;41327;45.102;20.624;2022-12-18T03:42:52;29.92;;;12.38;;
55461;SDS011;41327;45.102;20.624;2022-12-18T03:48:27;33.28;;;13.23;;
55461;SDS011;41327;45.102;20.624;2022-12-18T03:51:01;29.48;;;12.95;;
55461;SDS011;41327;45.102;20.624;2022-12-18T03:56:32;32.33;;;13.63;;
55461;SDS011;41327;45.102;20.624;2022-12-18T03:59:00;31.45;;;13.57;;
55461;SDS011;41327;45.102;20.624;2022-12-18T04:01:32;33.13;;;14.20;;
55461;SDS011;41327;45.102;20.624;2022-12-18T04:04:00;28.92;;;12.25;;
55461;SDS011;41327;45.102;20.624;2022-12-18T04:06:27;32.67;;;13.23;;
55461;SDS011;41327;45.102;20.624;2022-12-18T04:08:53;29.15;;;12.88;;
55461;SDS011;41327;45.102;20.624;2022-12-18T04:11:19;35.65;;;13.90;;
55461;SDS011;41327;45.102;20.624;2022-12-18T04:13:44;30.95;;;13.05;;
55461;SDS011;41327;45.102;20.624;2022-12-18T04:16:10;30.05;;;11.70;;
55461;SDS011;41327;45.102;20.624;2022-12-18T04:18:36;30.75;;;14.05;;
55461;SDS011;41327;45.102;20.624;2022-12-18T04:21:02;33.72;;;13.65;;
55461;SDS011;41327;45.102;20.624;2022-12-18T04:23:28;30.30;;;12.45;;
55461;SDS011;41327;45.102;20.624;2022-12-18T04:25:53;30.08;;;13.05;;
55461;SDS011;41327;45.102;20.624;2022-12-18T04:28:19;33.42;;;13.35;;
55461;SDS011;41327;45.102;20.624;2022-12-18T04:30:48;31.77;;;13.05;;
55461;SDS011;41327;45.102;20.624;2022-12-18T04:33:17;26.48;;;11.68;;
55461;SDS011;41327;45.102;20.624;2022-12-18T04:35:42;30.92;;;12.80;;
55461;SDS011;41327;45.102;20.624;2022-12-18T04:38:08;33.60;;;13.48;;
55461;SDS011;41327;45.102;20.624;2022-12-18T04:40:35;31.02;;;12.73;;
55461;SDS011;41327;45.102;20.624;2022-12-18T04:43:01;35.35;;;13.90;;
55461;SDS011;41327;45.102;20.624;2022-12-18T04:45:27;27.52;;;11.82;;
55461;SDS011;41327;45.102;20.624;2022-12-18T04:47:52;29.25;;;12.60;;
55461;SDS011;41327;45.102;20.624;2022-12-18T04:50:18;26.95;;;12.18;;
55461;SDS011;41327;45.102;20.624;2022-12-18T04:52:43;31.58;;;12.90;;
55461;SDS011;41327;45.102;20.624;2022-12-18T04:55:09;30.15;;;13.15;;
55461;SDS011;41327;45.102;20.624;2022-12-18T04:57:34;29.15;;;12.18;;
55461;SDS011;41327;45.102;20.624;2022-12-18T05:00:00;29.65;;;12.40;;
55461;SDS011;41327;45.102;20.624;2022-12-18T05:02:26;29.83;;;12.10;;
55461;SDS011;41327;45.102;20.624;2022-12-18T05:04:51;33.83;;;13.48;;
55461;SDS011;41327;45.102;20.624;2022-12-18T05:07:19;33.22;;;11.95;;
55461;SDS011;41327;45.102;20.624;2022-12-18T05:09:44;29.75;;;12.25;;
55461;SDS011;41327;45.102;20.624;2022-12-18T05:12:10;32.40;;;12.73;;
55461;SDS011;41327;45.102;20.624;2022-12-18T05:14:35;32.42;;;13.65;;
55461;SDS011;41327;45.102;20.624;2022-12-18T05:17:01;28.73;;;12.13;;
55461;SDS011;41327;45.102;20.624;2022-12-18T05:19:26;33.28;;;13.75;;
55461;SDS011;41327;45.102;20.624;2022-12-18T05:21:52;29.52;;;12.75;;
55461;SDS011;41327;45.102;20.624;2022-12-18T05:24:17;31.50;;;13.77;;
55461;SDS011;41327;45.102;20.624;2022-12-18T05:26:43;34.78;;;15.63;;
55461;SDS011;41327;45.102;20.624;2022-12-18T05:29:08;39.25;;;14.18;;
55461;SDS011;41327;45.102;20.624;2022-12-18T05:31:37;32.05;;;14.57;;
55461;SDS011;41327;45.102;20.624;2022-12-18T05:34:03;34.78;;;15.10;;
55461;SDS011;41327;45.102;20.624;2022-12-18T05:36:28;39.90;;;14.73;;
55461;SDS011;41327;45.102;20.624;2022-12-18T05:38:54;33.30;;;15.13;;
55461;SDS011;41327;45.102;20.624;2022-12-18T05:41:19;32.63;;;15.20;;
55461;SDS011;41327;45.102;20.624;2022-12-18T05:43:45;34.25;;;15.00;;
55461;SDS011;41327;45.102;20.624;2022-12-18T05:46:15;30.33;;;13.27;;
55461;SDS011;41327;45.102;20.624;2022-12-18T05:48:42;29.98;;;12.80;;
55461;SDS011;41327;45.102;20.624;2022-12-18T05:51:10;37.15;;;15.18;;
55461;SDS011;41327;45.102;20.624;2022-12-18T05:53:37;38.92;;;17.40;;
55461;SDS011;41327;45.102;20.624;2022-12-18T05:56:04;45.63;;;18.65;;
55461;SDS011;41327;45.102;20.624;2022-12-18T05:58:31;39.28;;;17.38;;
55461;SDS011;41327;45.102;20.624;2022-12-18T06:00:57;34.80;;;15.20;;
55461;SDS011;41327;45.102;20.624;2022-12-18T06:03:30;35.42;;;15.13;;
55461;SDS011;41327;45.102;20.624;2022-12-18T06:05:56;41.03;;;16.48;;
55461;SDS011;41327;45.102;20.624;2022-12-18T06:08:21;38.90;;;15.93;;
55461;SDS011;41327;45.102;20.624;2022-12-18T06:10:51;40.80;;;17.55;;
55461;SDS011;41327;45.102;20.624;2022-12-18T06:13:18;39.30;;;18.77;;
55461;SDS011;41327;45.102;20.624;2022-12-18T06:15:44;34.72;;;16.20;;
55461;SDS011;41327;45.102;20.624;2022-12-18T06:18:09;34.88;;;16.15;;
55461;SDS011;41327;45.102;20.624;2022-12-18T06:20:35;36.45;;;14.30;;
55461;SDS011;41327;45.102;20.624;2022-12-18T06:23:02;39.15;;;16.92;;
55461;SDS011;41327;45.102;20.624;2022-12-18T06:25:28;45.70;;;19.88;;
55461;SDS011;41327;45.102;20.624;2022-12-18T06:27:57;46.97;;;21.73;;
55461;SDS011;41327;45.102;20.624;2022-12-18T06:30:25;38.10;;;19.25;;
55461;SDS011;41327;45.102;20.624;2022-12-18T06:32:51;41.03;;;16.10;;
55461;SDS011;41327;45.102;20.624;2022-12-18T06:35:17;34.13;;;13.95;;
55461;SDS011;41327;45.102;20.624;2022-12-18T06:37:43;31.38;;;13.63;;
55461;SDS011;41327;45.102;20.624;2022-12-18T06:40:09;27.35;;;12.88;;
55461;SDS011;41327;45.102;20.624;2022-12-18T06:42:34;82.57;;;34.05;;
55461;SDS011;41327;45.102;20.624;2022-12-18T06:45:00;52.83;;;23.02;;
55461;SDS011;41327;45.102;20.624;2022-12-18T06:47:25;40.65;;;21.33;;
55461;SDS011;41327;45.102;20.624;2022-12-18T06:49:51;44.28;;;20.83;;
55461;SDS011;41327;45.102;20.624;2022-12-18T06:52:16;41.92;;;19.08;;
55461;SDS011;41327;45.102;20.624;2022-12-18T06:54:42;45.38;;;18.80;;
55461;SDS011;41327;45.102;20.624;2022-12-18T06:57:08;60.15;;;23.40;;
55461;SDS011;41327;45.102;20.624;2022-12-18T06:59:33;57.67;;;24.52;;
55461;SDS011;41327;45.102;20.624;2022-12-18T07:01:58;37.60;;;18.30;;
55461;SDS011;41327;45.102;20.624;2022-12-18T07:04:28;35.63;;;17.13;;
55461;SDS011;41327;45.102;20.624;2022-12-18T07:06:54;36.33;;;16.25;;
55461;SDS011;41327;45.102;20.624;2022-12-18T07:09:20;41.83;;;19.33;;
55461;SDS011;41327;45.102;20.624;2022-12-18T07:11:45;52.47;;;23.35;;
55461;SDS011;41327;45.102;20.624;2022-12-18T07:14:11;53.55;;;25.00;;
55461;SDS011;41327;45.102;20.624;2022-12-18T07:16:37;48.03;;;21.02;;
55461;SDS011;41327;45.102;20.624;2022-12-18T07:19:02;41.38;;;20.02;;
55461;SDS011;41327;45.102;20.624;2022-12-18T07:21:28;46.72;;;19.73;;
55461;SDS011;41327;45.102;20.624;2022-12-18T07:23:53;49.03;;;20.90;;
55461;SDS011;41327;45.102;20.624;2022-12-18T07:26:19;119.53;;;45.83;;
55461;SDS011;41327;45.102;20.624;2022-12-18T07:28:46;78.38;;;35.65;;
55461;SDS011;41327;45.102;20.624;2022-12-18T07:31:19;59.17;;;27.13;;
55461;SDS011;41327;45.102;20.624;2022-12-18T07:33:46;50.92;;;24.55;;
55461;SDS011;41327;45.102;20.624;2022-12-18T07:36:17;56.92;;;24.63;;
55461;SDS011;41327;45.102;20.624;2022-12-18T07:38:43;52.22;;;25.33;;
55461;SDS011;41327;45.102;20.624;2022-12-18T07:41:12;41.83;;;20.13;;
55461;SDS011;41327;45.102;20.624;2022-12-18T07:43:38;52.42;;;24.83;;
55461;SDS011;41327;45.102;20.624;2022-12-18T07:46:05;45.55;;;20.45;;
55461;SDS011;41327;45.102;20.624;2022-12-18T07:48:31;59.22;;;25.30;;
55461;SDS011;41327;45.102;20.624;2022-12-18T07:51:04;50.08;;;22.60;;
55461;SDS011;41327;45.102;20.624;2022-12-18T07:53:31;49.20;;;20.37;;
55461;SDS011;41327;45.102;20.624;2022-12-18T07:55:59;44.03;;;18.20;;
55461;SDS011;41327;45.102;20.624;2022-12-18T07:58:27;39.65;;;18.48;;
55461;SDS011;41327;45.102;20.624;2022-12-18T08:00:54;43.17;;;19.80;;
55461;SDS011;41327;45.102;20.624;2022-12-18T08:03:19;44.72;;;19.77;;
55461;SDS011;41327;45.102;20.624;2022-12-18T08:05:45;47.63;;;19.33;;
55461;SDS011;41327;45.102;20.624;2022-12-18T08:08:10;46.80;;;20.27;;
55461;SDS011;41327;45.102;20.624;2022-12-18T08:10:37;48.80;;;18.48;;
55461;SDS011;41327;45.102;20.624;2022-12-18T08:13:02;46.63;;;20.58;;
55461;SDS011;41327;45.102;20.624;2022-12-18T08:15:28;42.20;;;18.65;;
55461;SDS011;41327;45.102;20.624;2022-12-18T08:17:56;39.97;;;16.58;;
55461;SDS011;41327;45.102;20.624;2022-12-18T08:20:22;42.30;;;17.70;;
55461;SDS011;41327;45.102;20.624;2022-12-18T08:22:47;44.90;;;17.80;;
55461;SDS011;41327;45.102;20.624;2022-12-18T08:25:13;61.30;;;26.50;;
55461;SDS011;41327;45.102;20.624;2022-12-18T08:27:38;53.88;;;23.77;;
55461;SDS011;41327;45.102;20.624;2022-12-18T08:30:04;61.17;;;26.80;;
55461;SDS011;41327;45.102;20.624;2022-12-18T08:32:30;49.20;;;21.95;;
55461;SDS011;41327;45.102;20.624;2022-12-18T08:34:58;44.15;;;19.70;;
55461;SDS011;41327;45.102;20.624;2022-12-18T08:37:23;46.20;;;21.50;;
55461;SDS011;41327;45.102;20.624;2022-12-18T08:39:49;58.92;;;23.00;;
55461;SDS011;41327;45.102;20.624;2022-12-18T08:42:14;47.30;;;19.50;;
55461;SDS011;41327;45.102;20.624;2022-12-18T08:44:58;55.35;;;22.58;;
55461;SDS011;41327;45.102;20.624;2022-12-18T08:47:24;45.00;;;19.05;;
55461;SDS011;41327;45.102;20.624;2022-12-18T08:49:51;42.30;;;16.50;;
55461;SDS011;41327;45.102;20.624;2022-12-18T08:52:16;51.53;;;21.05;;
55461;SDS011;41327;45.102;20.624;2022-12-18T08:54:42;52.58;;;21.63;;
55461;SDS011;41327;45.102;20.624;2022-12-18T08:57:07;53.13;;;21.45;;
55461;SDS011;41327;45.102;20.624;2022-12-18T08:59:33;50.90;;;20.70;;
55461;SDS011;41327;45.102;20.624;2022-12-18T09:01:58;65.78;;;24.92;;
55461;SDS011;41327;45.102;20.624;2022-12-18T09:04:24;41.67;;;19.02;;
55461;SDS011;41327;45.102;20.624;2022-12-18T09:06:49;51.47;;;19.10;;
55461;SDS011;41327;45.102;20.624;2022-12-18T09:09:15;44.42;;;18.73;;
55461;SDS011;41327;45.102;20.624;2022-12-18T09:11:40;37.13;;;17.02;;
55461;SDS011;41327;45.102;20.624;2022-12-18T09:14:06;38.20;;;14.43;;
55461;SDS011;41327;45.102;20.624;2022-12-18T09:16:32;38.10;;;17.05;;
55461;SDS011;41327;45.102;20.624;2022-12-18T09:19:00;46.85;;;18.17;;
55461;SDS011;41327;45.102;20.624;2022-12-18T09:21:33;45.92;;;18.30;;
55461;SDS011;41327;45.102;20.624;2022-12-18T09:24:03;35.30;;;15.43;;
55461;SDS011;41327;45.102;20.624;2022-12-18T09:26:29;36.92;;;16.42;;
55461;SDS011;41327;45.102;20.624;2022-12-18T09:28:55;41.33;;;17.38;;
55461;SDS011;41327;45.102;20.624;2022-12-18T09:31:21;42.25;;;17.33;;
55461;SDS011;41327;45.102;20.624;2022-12-18T09:33:47;40.92;;;17.52;;
55461;SDS011;41327;45.102;20.624;2022-12-18T09:36:14;38.67;;;16.20;;
55461;SDS011;41327;45.102;20.624;2022-12-18T09:38:40;40.63;;;16.25;;
55461;SDS011;41327;45.102;20.624;2022-12-18T09:43:49;47.63;;;18.48;;
55461;SDS011;41327;45.102;20.624;2022-12-18T09:46:17;36.28;;;15.02;;
55461;SDS011;41327;45.102;20.624;2022-12-18T09:48:49;42.55;;;16.63;;
55461;SDS011;41327;45.102;20.624;2022-12-18T09:51:15;41.90;;;15.60;;
55461;SDS011;41327;45.102;20.624;2022-12-18T09:53:44;48.50;;;20.20;;
55461;SDS011;41327;45.102;20.624;2022-12-18T09:56:15;51.90;;;19.05;;
55461;SDS011;41327;45.102;20.624;2022-12-18T09:58:45;40.60;;;17.25;;
55461;SDS011;41327;45.102;20.624;2022-12-18T10:01:20;55.03;;;20.30;;
55461;SDS011;41327;45.102;20.624;2022-12-18T10:03:47;46.08;;;20.58;;
55461;SDS011;41327;45.102;20.624;2022-12-18T10:13:55;53.50;;;20.52;;
55461;SDS011;41327;45.102;20.624;2022-12-18T10:16:26;37.10;;;16.08;;
55461;SDS011;41327;45.102;20.624;2022-12-18T10:21:56;55.90;;;23.85;;
55461;SDS011;41327;45.102;20.624;2022-12-18T10:24:45;43.60;;;18.67;;
55461;SDS011;41327;45.102;20.624;2022-12-18T10:27:15;44.22;;;16.92;;
55461;SDS011;41327;45.102;20.624;2022-12-18T10:29:43;41.75;;;17.52;;
55461;SDS011;41327;45.102;20.624;2022-12-18T10:32:14;37.83;;;16.92;;
55461;SDS011;41327;45.102;20.624;2022-12-18T10:34:41;48.30;;;17.45;;
55461;SDS011;41327;45.102;20.624;2022-12-18T10:37:11;44.63;;;19.05;;
55461;SDS011;41327;45.102;20.624;2022-12-18T10:39:41;48.08;;;19.85;;
55461;SDS011;41327;45.102;20.624;2022-12-18T10:42:11;54.70;;;19.25;;
55461;SDS011;41327;45.102;20.624;2022-12-18T10:44:42;41.67;;;17.58;;
55461;SDS011;41327;45.102;20.624;2022-12-18T10:47:11;47.75;;;16.70;;
55461;SDS011;41327;45.102;20.624;2022-12-18T10:49:37;60.65;;;22.58;;
55461;SDS011;41327;45.102;20.624;2022-12-18T10:54:48;53.80;;;20.13;;
55461;SDS011;41327;45.102;20.624;2022-12-18T11:00:18;69.35;;;26.40;;
55461;SDS011;41327;45.102;20.624;2022-12-18T11:02:46;52.33;;;19.88;;
55461;SDS011;41327;45.102;20.624;2022-12-18T11:05:33;62.58;;;22.77;;
55461;SDS011;41327;45.102;20.624;2022-12-18T11:07:59;43.22;;;18.40;;
55461;SDS011;41327;45.102;20.624;2022-12-18T11:10:27;56.75;;;22.75;;
55461;SDS011;41327;45.102;20.624;2022-12-18T11:12:56;52.20;;;22.02;;
55461;SDS011;41327;45.102;20.624;2022-12-18T11:15:39;58.53;;;23.75;;
55461;SDS011;41327;45.102;20.624;2022-12-18T11:18:13;55.38;;;21.52;;
55461;SDS011;41327;45.102;20.624;2022-12-18T11:20:50;50.75;;;22.20;;
55461;SDS011;41327;45.102;20.624;2022-12-18T11:23:16;75.53;;;29.00;;
55461;SDS011;41327;45.102;20.624;2022-12-18T11:25:50;67.78;;;26.88;;
55461;SDS011;41327;45.102;20.624;2022-12-18T11:28:37;63.65;;;25.90;;
55461;SDS011;41327;45.102;20.624;2022-12-18T11:33:41;56.17;;;22.55;;
55461;SDS011;41327;45.102;20.624;2022-12-18T11:36:08;48.78;;;21.42;;
55461;SDS011;41327;45.102;20.624;2022-12-18T11:41:20;40.05;;;18.73;;
55461;SDS011;41327;45.102;20.624;2022-12-18T11:44:08;60.35;;;25.33;;
55461;SDS011;41327;45.102;20.624;2022-12-18T11:46:37;51.05;;;20.70;;
55461;SDS011;41327;45.102;20.624;2022-12-18T11:54:17;86.97;;;34.15;;
55461;SDS011;41327;45.102;20.624;2022-12-18T11:57:07;86.50;;;34.35;;
55461;SDS011;41327;45.102;20.624;2022-12-18T12:04:56;58.38;;;23.10;;
55461;SDS011;41327;45.102;20.624;2022-12-18T12:07:42;55.05;;;21.55;;
55461;SDS011;41327;45.102;20.624;2022-12-18T12:20:53;58.58;;;24.73;;
55461;SDS011;41327;45.102;20.624;2022-12-18T12:40:28;60.83;;;23.95;;
55461;SDS011;41327;45.102;20.624;2022-12-18T12:42:56;48.78;;;18.08;;
55461;SDS011;41327;45.102;20.624;2022-12-18T12:45:43;52.05;;;21.33;;
55461;SDS011;41327;45.102;20.624;2022-12-18T12:48:36;57.97;;;24.50;;
55461;SDS011;41327;45.102;20.624;2022-12-18T12:51:14;58.40;;;22.58;;
55461;SDS011;41327;45.102;20.624;2022-12-18T12:53:42;46.38;;;19.55;;
55461;SDS011;41327;45.102;20.624;2022-12-18T12:56:08;46.22;;;18.92;;
55461;SDS011;41327;45.102;20.624;2022-12-18T13:03:54;57.92;;;20.58;;
55461;SDS011;41327;45.102;20.624;2022-12-18T13:09:23;44.72;;;18.65;;
55461;SDS011;41327;45.102;20.624;2022-12-18T13:11:48;41.50;;;17.85;;
55461;SDS011;41327;45.102;20.624;2022-12-18T13:17:14;49.25;;;22.83;;
55461;SDS011;41327;45.102;20.624;2022-12-18T13:19:55;59.60;;;22.80;;
55461;SDS011;41327;45.102;20.624;2022-12-18T13:22:51;55.85;;;22.33;;
55461;SDS011;41327;45.102;20.624;2022-12-18T13:25:35;51.72;;;20.88;;
55461;SDS011;41327;45.102;20.624;2022-12-18T13:28:06;49.35;;;19.67;;
55461;SDS011;41327;45.102;20.624;2022-12-18T13:38:22;67.15;;;28.30;;
55461;SDS011;41327;45.102;20.624;2022-12-18T13:48:19;65.75;;;24.88;;
55461;SDS011;41327;45.102;20.624;2022-12-18T13:50:49;66.70;;;25.67;;
55461;SDS011;41327;45.102;20.624;2022-12-18T13:53:24;71.03;;;27.75;;
55461;SDS011;41327;45.102;20.624;2022-12-18T13:55:52;73.40;;;30.48;;
55461;SDS011;41327;45.102;20.624;2022-12-18T13:58:18;59.95;;;25.63;;
55461;SDS011;41327;45.102;20.624;2022-12-18T14:00:44;75.32;;;29.05;;
55461;SDS011;41327;45.102;20.624;2022-12-18T14:03:20;70.97;;;28.63;;
55461;SDS011;41327;45.102;20.624;2022-12-18T14:05:52;58.45;;;25.88;;
55461;SDS011;41327;45.102;20.624;2022-12-18T14:08:25;77.32;;;31.05;;
55461;SDS011;41327;45.102;20.624;2022-12-18T14:10:55;70.27;;;28.23;;
55461;SDS011;41327;45.102;20.624;2022-12-18T14:13:24;68.93;;;26.77;;
55461;SDS011;41327;45.102;20.624;2022-12-18T14:15:53;76.65;;;33.05;;
55461;SDS011;41327;45.102;20.624;2022-12-18T14:18:31;80.68;;;30.60;;
55461;SDS011;41327;45.102;20.624;2022-12-18T14:21:26;75.78;;;31.58;;
55461;SDS011;41327;45.102;20.624;2022-12-18T14:24:03;77.65;;;33.63;;
55461;SDS011;41327;45.102;20.624;2022-12-18T14:26:40;78.45;;;32.05;;
55461;SDS011;41327;45.102;20.624;2022-12-18T14:34:36;78.22;;;33.60;;
55461;SDS011;41327;45.102;20.624;2022-12-18T14:37:01;76.85;;;31.98;;
55461;SDS011;41327;45.102;20.624;2022-12-18T14:39:28;81.90;;;33.97;;
55461;SDS011;41327;45.102;20.624;2022-12-18T14:41:53;64.40;;;27.70;;
55461;SDS011;41327;45.102;20.624;2022-12-18T14:44:19;64.85;;;27.23;;
55461;SDS011;41327;45.102;20.624;2022-12-18T14:46:46;60.97;;;25.00;;
55461;SDS011;41327;45.102;20.624;2022-12-18T14:49:23;72.35;;;31.20;;
55461;SDS011;41327;45.102;20.624;2022-12-18T14:51:52;62.85;;;28.27;;
55461;SDS011;41327;45.102;20.624;2022-12-18T14:54:19;66.28;;;27.67;;
55461;SDS011;41327;45.102;20.624;2022-12-18T14:56:49;73.00;;;25.55;;
55461;SDS011;41327;45.102;20.624;2022-12-18T14:59:28;87.53;;;32.35;;
55461;SDS011;41327;45.102;20.624;2022-12-18T15:02:03;130.30;;;44.10;;
55461;SDS011;41327;45.102;20.624;2022-12-18T15:04:36;105.55;;;39.17;;
55461;SDS011;41327;45.102;20.624;2022-12-18T15:09:41;71.63;;;33.47;;
55461;SDS011;41327;45.102;20.624;2022-12-18T15:12:21;92.43;;;35.65;;
55461;SDS011;41327;45.102;20.624;2022-12-18T15:14:50;105.57;;;39.97;;
55461;SDS011;41327;45.102;20.624;2022-12-18T15:17:20;111.70;;;44.40;;
55461;SDS011;41327;45.102;20.624;2022-12-18T15:19:48;121.10;;;46.83;;
55461;SDS011;41327;45.102;20.624;2022-12-18T15:24:48;112.88;;;46.00;;
55461;SDS011;41327;45.102;20.624;2022-12-18T15:27:21;109.05;;;44.20;;
55461;SDS011;41327;45.102;20.624;2022-12-18T15:30:00;91.72;;;38.22;;
55461;SDS011;41327;45.102;20.624;2022-12-18T15:32:26;100.88;;;41.75;;
55461;SDS011;41327;45.102;20.624;2022-12-18T15:35:01;103.50;;;43.63;;
55461;SDS011;41327;45.102;20.624;2022-12-18T15:37:36;103.70;;;42.47;;
55461;SDS011;41327;45.102;20.624;2022-12-18T15:40:02;125.65;;;53.60;;
55461;SDS011;41327;45.102;20.624;2022-12-18T15:42:28;110.95;;;46.22;;
55461;SDS011;41327;45.102;20.624;2022-12-18T15:45:12;139.02;;;58.42;;
55461;SDS011;41327;45.102;20.624;2022-12-18T15:47:39;105.15;;;41.80;;
55461;SDS011;41327;45.102;20.624;2022-12-18T15:50:05;78.82;;;32.13;;
55461;SDS011;41327;45.102;20.624;2022-12-18T15:52:49;92.05;;;36.25;;
55461;SDS011;41327;45.102;20.624;2022-12-18T15:55:18;67.80;;;27.90;;
55461;SDS011;41327;45.102;20.624;2022-12-18T15:58:04;174.40;;;56.22;;
55461;SDS011;41327;45.102;20.624;2022-12-18T16:00:30;95.28;;;35.60;;
55461;SDS011;41327;45.102;20.624;2022-12-18T16:02:56;68.05;;;30.35;;
55461;SDS011;41327;45.102;20.624;2022-12-18T16:05:21;72.72;;;32.60;;
55461;SDS011;41327;45.102;20.624;2022-12-18T16:07:48;80.43;;;33.47;;
55461;SDS011;41327;45.102;20.624;2022-12-18T16:10:13;100.90;;;40.08;;
55461;SDS011;41327;45.102;20.624;2022-12-18T16:12:39;174.45;;;63.70;;
55461;SDS011;41327;45.102;20.624;2022-12-18T16:15:06;136.88;;;51.40;;
55461;SDS011;41327;45.102;20.624;2022-12-18T16:17:32;84.90;;;33.55;;
55461;SDS011;41327;45.102;20.624;2022-12-18T16:19:57;94.53;;;34.80;;
55461;SDS011;41327;45.102;20.624;2022-12-18T16:22:27;150.13;;;57.42;;
55461;SDS011;41327;45.102;20.624;2022-12-18T16:24:54;139.27;;;55.72;;
55461;SDS011;41327;45.102;20.624;2022-12-18T16:27:20;104.30;;;44.10;;
55461;SDS011;41327;45.102;20.624;2022-12-18T16:29:48;127.82;;;51.70;;
55461;SDS011;41327;45.102;20.624;2022-12-18T16:32:15;115.53;;;47.67;;